Time;durP1;ratioP1;P1;durP2;ratioP2;P2;SDS_P1;SDS_P2;PMS_P1;PMS_P2;Temp;Humidity;BMP_temperature;BMP_pressure;BME280_temperature;BME280_humidity;BME280_pressure;Samples;Min_cycle;Max_cycle;Signal;HPM_P1;HPM_P2
2022/04/26 03:37:29;;;;;;;8.32;4.13;;;;;;;6.43;91.70;101451.28;5059197;28;20048;-92
2022/04/26 03:39:55;;;;;;;15.75;4.40;;;;;;;6.43;91.44;101455.81;5073224;28;20146;-92
2022/04/26 03:42:20;;;;;;;7.07;3.60;;;;;;;6.40;91.62;101449.03;5070000;28;20025;-93
2022/04/26 03:44:46;;;;;;;9.13;3.70;;;;;;;6.37;91.73;101454.81;5074331;28;20074;-93
2022/04/26 03:47:11;;;;;;;7.13;3.80;;;;;;;6.30;92.09;101452.16;5074232;28;20032;-93
2022/04/26 03:49:37;;;;;;;8.43;4.30;;;;;;;6.25;92.36;101453.84;5072700;28;20032;-93
2022/04/26 03:52:03;;;;;;;7.90;3.97;;;;;;;6.18;92.97;101456.53;5071714;28;20867;-93
2022/04/26 03:54:28;;;;;;;7.13;3.50;;;;;;;6.15;93.26;101455.13;5076884;28;20052;-96
2022/04/26 03:56:54;;;;;;;6.80;3.93;;;;;;;6.13;93.51;101462.50;5074400;28;20024;-92
2022/04/26 03:59:19;;;;;;;8.50;4.03;;;;;;;6.16;93.94;101462.09;5068876;28;20506;-94
2022/04/26 04:01:45;;;;;;;7.53;4.40;;;;;;;6.18;94.09;101465.34;5073744;28;20032;-93
2022/04/26 04:04:13;;;;;;;11.00;4.32;;;;;;;6.19;94.39;101460.84;5070926;28;20568;-93
2022/04/26 04:06:38;;;;;;;6.78;4.53;;;;;;;6.23;94.38;101462.06;5084376;28;20044;-93
2022/04/26 04:09:03;;;;;;;10.73;4.37;;;;;;;6.26;94.09;101466.97;5076191;28;20033;-93
2022/04/26 04:11:29;;;;;;;8.05;4.00;;;;;;;6.30;94.23;101470.78;5087781;28;20158;-93
2022/04/26 04:13:54;;;;;;;8.67;4.20;;;;;;;6.32;94.39;101470.59;5075094;28;20036;-93
2022/04/26 04:16:21;;;;;;;13.03;4.40;;;;;;;6.33;94.58;101477.56;5072701;28;20028;-93
2022/04/26 04:24:03;;;;;;;9.65;4.50;;;;;;;6.32;94.81;101475.94;5051225;28;20056;-89
2022/04/26 04:26:47;;;;;;;9.38;5.25;;;;;;;6.32;94.88;101481.25;5052896;28;20036;-91
2022/04/26 04:29:19;;;;;;;7.72;4.50;;;;;;;6.27;95.02;101475.75;5021277;28;20074;-93
2022/04/26 04:32:20;;;;;;;10.38;4.68;;;;;;;6.40;95.17;101490.84;5079359;28;20020;-96
2022/04/26 04:34:49;;;;;;;7.33;4.57;;;;;;;6.41;95.11;101495.13;5074019;28;20040;-96
2022/04/26 04:37:16;;;;;;;12.07;5.00;;;;;;;6.36;95.33;101493.13;5116740;28;20281;-96
2022/04/26 04:39:42;;;;;;;6.70;4.28;;;;;;;6.32;95.13;101479.41;5118035;27;20004;-96
2022/04/26 04:47:18;;;;;;;10.13;5.13;;;;;;;6.33;95.67;101493.53;5734164;22;20025;-95
2022/04/26 04:49:47;;;;;;;8.37;4.80;;;;;;;6.36;95.61;101498.44;5056769;28;20055;-95
2022/04/26 04:52:15;;;;;;;9.13;4.78;;;;;;;6.43;95.26;101509.84;5052066;28;20032;-95
2022/04/26 04:54:42;;;;;;;12.48;5.40;;;;;;;6.34;95.70;101500.50;5051726;28;20105;-95
2022/04/26 04:57:10;;;;;;;10.50;4.35;;;;;;;6.45;95.63;101512.31;5045248;28;20041;-96
2022/04/26 04:59:36;;;;;;;11.23;5.05;;;;;;;6.37;95.50;101518.72;5034670;28;20141;-94
2022/04/26 05:02:02;;;;;;;10.00;4.90;;;;;;;6.38;95.64;101514.19;5035730;28;20037;-94
2022/04/26 05:04:27;;;;;;;11.93;4.77;;;;;;;6.44;95.49;101516.00;5052025;28;20025;-95
2022/04/26 05:06:53;;;;;;;7.22;5.30;;;;;;;6.44;95.08;101516.00;5065627;28;20033;-95
2022/04/26 05:09:23;;;;;;;10.80;4.73;;;;;;;6.42;95.32;101518.06;5061898;28;20079;-95
2022/04/26 05:11:58;;;;;;;10.57;5.30;;;;;;;6.56;95.29;101540.91;5057693;28;20029;-95
2022/04/26 05:14:23;;;;;;;11.88;5.22;;;;;;;6.58;95.07;101538.03;5057791;28;20104;-96
2022/04/26 05:16:48;;;;;;;11.03;4.50;;;;;;;6.54;95.35;101534.19;5058938;28;20057;-95
2022/04/26 05:19:14;;;;;;;9.93;5.10;;;;;;;6.56;95.02;101537.47;5069421;28;20033;-95
2022/04/26 05:21:44;;;;;;;9.63;4.93;;;;;;;6.58;95.12;101540.69;5065213;28;20025;-95
2022/04/26 05:26:57;;;;;;;10.18;4.88;;;;;;;6.71;94.36;101556.63;5063821;28;20101;-94
2022/04/26 05:29:38;;;;;;;9.83;4.87;;;;;;;6.76;94.71;101563.97;5068061;28;20033;-94
2022/04/26 05:32:04;;;;;;;11.38;5.00;;;;;;;6.77;94.52;101563.75;5074021;28;20040;-96
2022/04/26 05:34:29;;;;;;;8.13;5.00;;;;;;;6.76;94.41;101559.44;5075970;28;20013;-95
2022/04/26 05:36:57;;;;;;;9.60;5.17;;;;;;;6.75;94.34;101565.00;5073706;28;20279;-94
2022/04/26 05:39:22;;;;;;;12.77;4.90;;;;;;;6.79;94.53;101566.19;5068533;28;20097;-94
2022/04/26 05:41:47;;;;;;;10.20;5.47;;;;;;;6.80;93.79;101565.97;5066330;28;20048;-95
2022/04/26 05:44:12;;;;;;;7.77;4.67;;;;;;;6.89;93.61;101563.06;5053119;28;20029;-94
2022/04/26 05:46:38;;;;;;;9.67;5.93;;;;;;;6.94;93.65;101568.56;5071472;28;20013;-93
2022/04/26 05:49:03;;;;;;;11.07;5.27;;;;;;;7.03;93.15;101577.94;5071961;28;20032;-94
2022/04/26 05:51:28;;;;;;;8.20;4.82;;;;;;;7.16;93.06;101570.88;5074456;28;20017;-96
2022/04/26 05:53:54;;;;;;;12.80;5.53;;;;;;;7.28;92.41;101572.63;5079992;28;20009;-92
2022/04/26 05:56:19;;;;;;;10.20;5.47;;;;;;;7.39;91.84;101567.63;5063784;28;20016;-92
2022/04/26 06:03:49;;;;;;;11.23;5.13;;;;;;;7.70;90.25;101576.59;5109533;28;20050;-93
2022/04/26 06:06:15;;;;;;;9.10;5.07;;;;;;;7.81;89.70;101583.84;5114852;28;20028;-92
2022/04/26 06:08:40;;;;;;;7.87;4.80;;;;;;;7.88;89.08;101587.28;5106323;28;20024;-94
2022/04/26 06:11:06;;;;;;;11.43;5.20;;;;;;;7.99;88.83;101593.75;5097776;28;20180;-90
2022/04/26 06:13:31;;;;;;;15.02;5.65;;;;;;;8.10;88.58;101594.88;5078661;28;20079;-89
2022/04/26 06:15:56;;;;;;;9.90;5.77;;;;;;;8.19;88.40;101590.03;5092916;28;20015;-92
2022/04/26 06:18:22;;;;;;;8.57;5.20;;;;;;;8.27;87.65;101596.94;5095673;28;20462;-92
2022/04/26 06:20:47;;;;;;;13.15;5.40;;;;;;;8.28;87.43;101596.69;5098251;28;20020;-90
2022/04/26 06:23:13;;;;;;;10.67;5.30;;;;;;;8.35;86.98;101591.28;5082736;28;20085;-89
2022/04/26 06:25:39;;;;;;;10.37;6.07;;;;;;;8.29;87.09;101611.69;5099508;28;20031;-91
2022/04/26 06:28:06;;;;;;;10.57;5.70;;;;;;;8.24;86.88;101598.19;5080511;28;20290;-89
2022/04/26 06:30:31;;;;;;;9.82;5.90;;;;;;;8.25;87.30;101612.34;5094698;28;20024;-89
2022/04/26 06:32:57;;;;;;;12.70;6.40;;;;;;;8.32;86.77;101615.75;5076846;28;20086;-90
2022/04/26 06:35:22;;;;;;;17.60;6.47;;;;;;;8.44;86.89;101602.47;5073776;28;20044;-90
2022/04/26 06:37:48;;;;;;;10.67;6.23;;;;;;;8.59;86.54;101615.47;5096208;28;20028;-90
2022/04/26 06:40:14;;;;;;;12.23;6.10;;;;;;;8.59;86.14;101615.47;5094055;28;20291;-90
2022/04/26 06:42:39;;;;;;;14.30;6.60;;;;;;;8.55;85.59;101616.97;5087405;28;20710;-91
2022/04/26 06:45:05;;;;;;;16.97;6.60;;;;;;;8.59;85.33;101620.81;5093885;28;20024;-91
2022/04/26 06:47:30;;;;;;;8.73;6.10;;;;;;;8.69;85.89;101625.63;5093073;28;20024;-90
2022/04/26 06:49:55;;;;;;;12.80;6.70;;;;;;;8.74;84.88;101628.44;5093435;28;20282;-89
2022/04/26 06:52:21;;;;;;;12.93;6.90;;;;;;;8.77;84.93;101631.47;5091615;28;20053;-96
2022/04/26 06:54:46;;;;;;;14.57;7.00;;;;;;;8.71;82.94;101628.91;5096131;28;20126;-95
2022/04/26 06:57:11;;;;;;;12.83;7.33;;;;;;;8.69;83.78;101630.97;5081801;28;20031;-95
2022/04/26 06:59:39;;;;;;;13.83;6.13;;;;;;;8.87;83.97;101633.63;5104194;28;20059;-96
2022/04/26 07:02:05;;;;;;;11.57;6.40;;;;;;;8.94;83.19;101630.84;5092989;28;20047;-92
2022/04/26 07:04:31;;;;;;;9.90;6.80;;;;;;;8.96;83.56;101633.28;5098408;28;20429;-94
2022/04/26 07:06:56;;;;;;;11.45;6.97;;;;;;;8.87;82.98;101644.31;5074124;28;20100;-94
2022/04/26 07:09:22;;;;;;;15.17;7.40;;;;;;;8.75;82.01;101633.56;5088680;28;20032;-92
2022/04/26 07:11:47;;;;;;;13.80;7.10;;;;;;;8.73;82.33;101630.28;5095492;28;20020;-89
2022/04/26 07:14:13;;;;;;;14.68;7.22;;;;;;;8.77;82.92;101630.66;5107715;28;20077;-91
2022/04/26 07:16:38;;;;;;;12.45;6.63;;;;;;;8.87;83.51;101628.28;5101236;28;20030;-90
2022/04/26 07:19:04;;;;;;;14.23;7.60;;;;;;;8.86;82.58;101634.66;5102201;28;20032;-91
2022/04/26 07:21:31;;;;;;;12.43;7.43;;;;;;;8.78;82.26;101641.13;5101624;28;20048;-91
2022/04/26 07:23:56;;;;;;;9.73;6.67;;;;;;;8.73;82.82;101632.16;5101521;28;20032;-91
2022/04/26 07:26:22;;;;;;;12.77;7.20;;;;;;;8.77;83.06;101638.66;5105322;28;20819;-90
2022/04/26 07:28:47;;;;;;;10.83;6.37;;;;;;;8.89;83.47;101638.72;5099626;28;20032;-92
2022/04/26 07:31:12;;;;;;;11.80;7.13;;;;;;;9.12;82.42;101647.88;5117432;22;20071;-93
2022/04/26 07:36:22;;;;;;;18.27;7.25;;;;;;;9.42;79.58;101649.69;5077016;28;20059;-95
2022/04/26 07:38:49;;;;;;;10.77;6.22;;;;;;;9.62;78.24;101662.75;5072317;28;20050;-95
2022/04/26 07:41:16;;;;;;;16.40;6.97;;;;;;;9.75;78.18;101661.75;5071576;28;20070;-94
2022/04/26 07:43:49;;;;;;;11.52;6.53;;;;;;;9.97;78.22;101664.66;5053857;28;20028;-92
2022/04/26 07:46:16;;;;;;;14.07;6.85;;;;;;;10.21;77.72;101660.09;5068599;28;20027;-95
2022/04/26 07:48:43;;;;;;;9.57;5.97;;;;;;;10.25;75.27;101673.81;5073961;28;20016;-95
2022/04/26 07:51:10;;;;;;;15.50;5.97;;;;;;;10.13;74.38;101661.25;5146759;23;20051;-92
2022/04/26 07:53:42;;;;;;;10.15;5.85;;;;;;;10.13;74.98;101661.25;5072863;28;20047;-90
2022/04/26 07:56:12;;;;;;;13.80;6.30;;;;;;;10.33;74.05;101664.59;5090163;28;20062;-90
2022/04/26 07:58:46;;;;;;;14.47;6.27;;;;;;;10.67;74.27;101668.31;5090380;28;20297;-90
2022/04/26 08:01:15;;;;;;;9.50;5.82;;;;;;;10.88;72.39;101685.59;5091186;28;20078;-90
2022/04/26 08:03:43;;;;;;;13.82;5.93;;;;;;;10.88;70.60;101682.91;5092886;28;20024;-90
2022/04/26 08:06:10;;;;;;;14.10;5.95;;;;;;;10.86;70.29;101685.00;5092914;28;20050;-90
2022/04/26 08:08:44;;;;;;;10.23;5.78;;;;;;;11.02;70.97;101683.44;5092452;28;20066;-90
2022/04/26 08:11:13;;;;;;;11.65;5.25;;;;;;;11.05;70.02;101676.78;5091232;28;20044;-89
2022/04/26 08:13:42;;;;;;;13.27;6.03;;;;;;;11.27;69.27;101687.66;5092391;28;20024;-89
2022/04/26 08:16:09;;;;;;;13.63;5.65;;;;;;;11.54;69.27;101700.44;5093063;28;20479;-89
2022/04/26 08:18:35;;;;;;;10.80;5.55;;;;;;;11.59;67.28;101700.53;5093392;28;20058;-88
2022/04/26 08:21:00;;;;;;;14.27;5.73;;;;;;;11.52;67.57;101699.88;5093226;28;20028;-88
2022/04/26 08:23:26;;;;;;;12.33;4.90;;;;;;;11.62;67.28;101705.44;5095224;28;20028;-89
2022/04/26 08:28:35;;;;;;;12.98;6.00;;;;;;;11.54;66.61;101716.56;5100779;28;20074;-89
2022/04/26 08:31:01;;;;;;;8.50;5.37;;;;;;;11.48;66.80;101706.81;5105757;28;20719;-89
2022/04/26 08:33:27;;;;;;;17.10;5.30;;;;;;;11.61;66.66;101708.34;5111747;28;20016;-89
2022/04/26 08:35:54;;;;;;;13.48;5.60;;;;;;;11.75;67.31;101716.91;5111905;28;20020;-89
2022/04/26 08:38:20;;;;;;;12.15;5.85;;;;;;;11.93;67.80;101718.53;5088951;28;20453;-89
2022/04/26 08:40:45;;;;;;;10.47;5.90;;;;;;;11.90;66.90;101725.19;5091324;28;20024;-89
2022/04/26 08:43:11;;;;;;;18.17;6.15;;;;;;;11.72;66.58;101722.75;5092879;28;20028;-89
2022/04/26 08:45:41;;;;;;;12.00;6.25;;;;;;;11.49;67.34;101716.47;5098586;28;20477;-89
2022/04/26 08:51:00;;;;;;;11.67;5.30;;;;;;;11.63;66.33;101728.53;5073609;28;20843;-88
2022/04/26 08:53:28;;;;;;;11.73;5.30;;;;;;;11.56;66.66;101724.38;5074250;28;20027;-88
2022/04/26 08:55:55;;;;;;;13.00;5.65;;;;;;;11.48;67.70;101733.63;5073639;28;20029;-88
2022/04/26 08:58:22;;;;;;;13.57;5.88;;;;;;;11.37;67.48;101727.28;5073338;28;20487;-89
2022/04/26 09:01:08;;;;;;;15.43;5.32;;;;;;;11.29;68.04;101736.53;5086439;28;20033;-89
2022/04/26 09:03:57;;;;;;;13.45;5.38;;;;;;;11.32;68.00;101732.53;5106783;28;20024;-88
2022/04/26 09:06:36;;;;;;;9.63;5.20;;;;;;;11.32;67.10;101746.75;5111390;28;20048;-88
2022/04/26 09:09:18;;;;;;;13.07;5.00;;;;;;;11.34;67.81;101736.59;5105687;28;20024;-88
2022/04/26 09:11:45;;;;;;;10.85;4.32;;;;;;;11.32;66.63;101736.03;5093185;28;20527;-88
2022/04/26 09:14:47;;;;;;;10.60;4.93;;;;;;;11.31;67.85;101750.53;5092798;28;20024;-88
2022/04/26 09:17:16;;;;;;;9.90;4.87;;;;;;;11.11;66.57;101747.44;5086451;28;20292;-89
2022/04/26 09:19:46;;;;;;;10.23;4.85;;;;;;;11.02;67.47;101744.34;5091176;28;20036;-89
2022/04/26 09:22:20;;;;;;;8.93;4.70;;;;;;;10.97;68.34;101730.81;5096269;28;20120;-88
2022/04/26 09:25:03;;;;;;;16.42;5.13;;;;;;;11.04;67.99;101743.03;5095614;28;20134;-88
2022/04/26 09:27:29;;;;;;;11.43;4.72;;;;;;;11.35;67.71;101727.50;5095928;28;20124;-89
2022/04/26 09:29:54;;;;;;;7.00;4.60;;;;;;;11.73;66.18;101735.13;5094980;28;20051;-88
2022/04/26 09:32:20;;;;;;;10.73;4.40;;;;;;;12.02;63.98;101743.13;5095960;28;20020;-89
2022/04/26 09:34:46;;;;;;;5.47;4.35;;;;;;;12.23;63.07;101739.69;5094890;28;20506;-88
2022/04/26 09:37:12;;;;;;;9.47;4.33;;;;;;;12.50;62.69;101749.75;5095949;28;20032;-88
2022/04/26 09:39:39;;;;;;;9.93;4.38;;;;;;;12.66;60.80;101748.09;5094404;28;20281;-87
2022/04/26 09:42:05;;;;;;;9.48;4.32;;;;;;;12.72;60.47;101752.44;5095680;28;20059;-89
2022/04/26 09:44:33;;;;;;;8.90;4.18;;;;;;;12.78;60.36;101769.44;5095453;28;20024;-89
2022/04/26 09:47:00;;;;;;;7.90;4.07;;;;;;;12.67;59.50;101754.25;5095772;28;20024;-89
2022/04/26 09:49:26;;;;;;;7.73;4.47;;;;;;;12.74;59.12;101760.28;5093969;28;20674;-89
2022/04/26 09:51:59;;;;;;;10.50;3.90;;;;;;;12.79;58.40;101759.53;5058716;28;20119;-91
2022/04/26 09:54:25;;;;;;;15.18;3.97;;;;;;;12.78;59.12;101760.59;5076741;28;20426;-92
2022/04/26 09:56:53;;;;;;;11.60;4.10;;;;;;;12.93;58.43;101768.03;5081854;28;20024;-90
2022/04/26 09:59:29;;;;;;;10.18;3.90;;;;;;;12.83;58.79;101766.03;5084014;28;20097;-90
2022/04/26 10:01:56;;;;;;;9.70;3.97;;;;;;;12.70;59.37;101775.28;5095055;28;20015;-90
2022/04/26 10:04:25;;;;;;;8.05;3.70;;;;;;;12.85;58.14;101771.97;5093495;28;20024;-88
2022/04/26 10:07:15;;;;;;;7.13;4.00;;;;;;;13.23;56.55;101775.66;5093986;28;20035;-87
2022/04/26 10:09:44;;;;;;;8.27;3.60;;;;;;;13.30;54.38;101778.16;5056607;28;20036;-90
2022/04/26 10:12:10;;;;;;;7.40;3.97;;;;;;;13.30;54.86;101780.84;5082078;28;20040;-88
2022/04/26 10:14:35;;;;;;;8.27;4.37;;;;;;;13.60;53.20;101784.94;5088956;28;20289;-90
2022/04/26 10:17:03;;;;;;;8.60;3.65;;;;;;;14.06;53.27;101787.22;5097898;28;20031;-88
2022/04/26 10:19:39;;;;;;;7.73;3.30;;;;;;;14.69;54.36;101776.56;5100111;28;20077;-91
2022/04/26 10:22:08;;;;;;;12.43;3.60;;;;;;;15.10;49.93;101794.03;5093664;28;20760;-87
2022/04/26 10:24:34;;;;;;;8.18;3.55;;;;;;;14.89;48.22;101791.25;5075579;28;20032;-86
2022/04/26 10:27:25;;;;;;;7.32;3.85;;;;;;;14.91;51.24;101796.38;5087551;28;20036;-89
2022/04/26 10:29:51;;;;;;;7.47;3.65;;;;;;;15.09;50.00;101795.09;5079594;28;20032;-87
2022/04/26 10:32:38;;;;;;;7.55;3.88;;;;;;;15.16;49.13;101805.66;5092273;28;20024;-89
2022/04/26 10:35:33;;;;;;;8.88;3.70;;;;;;;15.20;50.87;101798.66;5084390;28;20078;-88
2022/04/26 10:38:08;;;;;;;5.65;3.40;;;;;;;15.25;48.28;101798.63;5075650;28;20043;-88
2022/04/26 10:41:04;;;;;;;9.65;3.92;;;;;;;15.28;48.02;101804.34;5090182;28;20065;-88
2022/04/26 10:43:32;;;;;;;4.78;3.53;;;;;;;15.48;48.33;101802.78;5077765;28;20036;-87
2022/04/26 10:46:15;;;;;;;5.73;3.87;;;;;;;15.50;48.35;101803.31;5083755;28;20038;-88
2022/04/26 10:48:41;;;;;;;5.70;3.70;;;;;;;15.65;47.63;101804.41;5090626;28;20290;-86
2022/04/26 10:51:31;;;;;;;5.82;3.50;;;;;;;15.91;47.86;101810.69;5068698;28;20460;-87
2022/04/26 10:53:57;;;;;;;4.60;3.85;;;;;;;15.73;44.03;101809.25;5072083;28;20098;-86
2022/04/26 10:56:22;;;;;;;6.53;3.60;;;;;;;15.35;45.19;101814.06;5088148;28;20450;-85
2022/04/26 10:58:54;;;;;;;5.87;3.77;;;;;;;15.32;45.43;101823.50;5092160;28;20052;-84
2022/04/26 11:01:23;;;;;;;8.85;3.97;;;;;;;15.00;46.21;101808.28;5093133;28;20038;-84
2022/04/26 11:03:57;;;;;;;9.90;3.63;;;;;;;15.04;46.94;101809.38;5083162;28;20051;-84
2022/04/26 11:06:37;;;;;;;10.93;4.07;;;;;;;15.06;48.46;101801.03;5078861;28;20028;-85
2022/04/26 11:09:14;;;;;;;8.25;3.72;;;;;;;15.13;48.85;101817.78;5088850;28;20042;-84
2022/04/26 11:11:53;;;;;;;7.10;4.20;;;;;;;15.25;48.08;101807.56;5085236;28;20028;-84
2022/04/26 11:14:20;;;;;;;5.10;3.92;;;;;;;15.22;47.70;101802.69;5074849;28;20050;-84
2022/04/26 11:16:59;;;;;;;8.38;3.95;;;;;;;15.27;47.70;101797.31;5072038;28;20028;-83
2022/04/26 11:19:34;;;;;;;10.02;3.95;;;;;;;14.86;46.59;101796.34;5089619;28;20040;-85
2022/04/26 11:22:07;;;;;;;7.10;3.77;;;;;;;14.61;47.21;101803.22;5089734;28;20050;-85
2022/04/26 11:30:05;;;;;;;5.60;3.58;;;;;;;14.34;49.68;101799.53;5091661;28;20093;-88
2022/04/26 11:32:35;;;;;;;9.32;4.20;;;;;;;14.50;48.99;101780.75;5073847;28;20063;-89
2022/04/26 11:35:02;;;;;;;8.98;4.80;;;;;;;14.75;48.46;101803.59;5086258;28;20640;-91
2022/04/26 11:37:28;;;;;;;9.75;4.22;;;;;;;14.69;49.08;101805.44;5064609;28;20454;-90
2022/04/26 11:39:53;;;;;;;13.43;4.60;;;;;;;14.71;48.20;101805.19;5091991;28;20062;-89
2022/04/26 11:42:20;;;;;;;8.13;4.70;;;;;;;14.63;47.41;101804.56;5091060;28;20016;-87
2022/04/26 11:44:59;;;;;;;14.32;4.53;;;;;;;14.74;48.80;101816.25;5073522;28;20075;-88
2022/04/26 11:47:39;;;;;;;6.68;4.43;;;;;;;14.69;48.81;101805.44;5093327;28;20028;-90
2022/04/26 11:50:16;;;;;;;6.18;4.63;;;;;;;14.74;48.43;101802.75;5091632;28;20023;-89
2022/04/26 11:52:45;;;;;;;5.90;4.38;;;;;;;14.78;47.27;101806.56;5082410;28;20429;-90
2022/04/26 11:55:25;;;;;;;6.45;4.50;;;;;;;14.96;47.10;101821.50;5089709;28;20028;-90
2022/04/26 11:57:52;;;;;;;7.80;4.55;;;;;;;14.65;47.12;101821.28;5079857;28;20028;-89
2022/04/26 12:00:20;;;;;;;8.00;4.60;;;;;;;14.51;47.14;101822.84;5083578;28;20020;-89
2022/04/26 12:02:47;;;;;;;8.07;4.88;;;;;;;14.39;46.61;101825.72;5090789;28;20119;-90
2022/04/26 12:05:14;;;;;;;10.93;4.80;;;;;;;14.47;46.85;101817.16;5075373;28;20550;-90
2022/04/26 12:07:40;;;;;;;11.00;4.37;;;;;;;14.76;46.54;101807.91;5081976;28;20290;-90
2022/04/26 12:10:30;;;;;;;6.60;3.95;;;;;;;14.97;45.46;101825.81;5091751;28;20028;-89
2022/04/26 12:12:57;;;;;;;6.65;4.03;;;;;;;15.21;44.42;101821.88;5093232;28;20035;-88
2022/04/26 12:15:24;;;;;;;9.23;3.75;;;;;;;15.59;45.75;101823.31;5070422;28;20506;-89
2022/04/26 12:18:08;;;;;;;9.80;4.65;;;;;;;15.64;44.53;101827.09;5091960;28;20028;-89
2022/04/26 12:20:35;;;;;;;4.68;4.18;;;;;;;15.57;42.92;101816.56;5092593;28;20042;-90
2022/04/26 12:23:01;;;;;;;4.30;3.90;;;;;;;15.63;42.26;101817.38;5076524;28;20024;-90
2022/04/26 12:25:27;;;;;;;5.53;3.80;;;;;;;15.80;42.62;101815.22;5094216;28;20776;-90
2022/04/26 12:28:07;;;;;;;9.18;4.03;;;;;;;15.82;41.82;101823.88;5098834;28;20024;-91
2022/04/26 12:30:37;;;;;;;8.80;4.00;;;;;;;15.78;40.81;101827.41;5091706;28;20443;-89
2022/04/26 12:33:04;;;;;;;9.20;3.70;;;;;;;15.85;41.25;101833.34;5090382;28;20302;-89
2022/04/26 12:35:29;;;;;;;8.32;4.03;;;;;;;16.43;40.38;101832.28;5101565;28;20047;-90
2022/04/26 12:38:08;;;;;;;5.40;4.20;;;;;;;17.13;41.06;101817.22;5098292;28;20028;-88
2022/04/26 12:40:35;;;;;;;5.90;4.30;;;;;;;17.66;38.63;101833.69;5078501;28;20353;-87
2022/04/26 12:43:02;;;;;;;11.05;3.75;;;;;;;17.93;38.14;101820.78;5088660;28;20021;-88
2022/04/26 12:45:28;;;;;;;7.40;3.75;;;;;;;18.15;37.74;101829.28;5070787;28;20157;-84
2022/04/26 12:51:27;;;;;;;5.27;3.90;;;;;;;17.55;38.59;101830.25;5079664;28;20691;-87
2022/04/26 12:53:54;;;;;;;8.37;3.90;;;;;;;17.23;37.27;101827.97;5088212;28;20285;-89
2022/04/26 12:56:20;;;;;;;13.73;3.90;;;;;;;17.35;39.06;101816.81;5089973;28;20027;-87
2022/04/26 12:58:48;;;;;;;9.48;4.45;;;;;;;17.30;36.81;101822.25;5085747;28;20032;-86
2022/04/26 13:01:15;;;;;;;8.23;4.00;;;;;;;16.85;37.04;101831.09;5086315;28;20020;-86
2022/04/26 13:03:42;;;;;;;8.15;3.78;;;;;;;16.32;38.42;101829.59;5062516;28;20391;-87
2022/04/26 13:06:13;;;;;;;9.02;3.88;;;;;;;16.51;39.97;101829.03;5083611;28;20100;-86
2022/04/26 13:08:40;;;;;;;9.40;4.20;;;;;;;16.46;39.28;101815.50;5088927;28;20024;-85
2022/04/26 13:11:06;;;;;;;7.32;3.60;;;;;;;16.38;39.96;101824.97;5079824;28;20080;-86
2022/04/26 13:13:34;;;;;;;8.73;4.05;;;;;;;16.50;39.79;101809.25;5072339;28;20038;-89
2022/04/26 13:15:59;;;;;;;5.77;4.03;;;;;;;16.44;40.33;101818.47;5070851;28;20020;-90
2022/04/26 13:18:25;;;;;;;6.73;4.20;;;;;;;16.44;40.46;101821.16;5089647;28;20695;-89
2022/04/26 13:20:50;;;;;;;8.67;3.93;;;;;;;16.53;39.54;101826.81;5090689;28;20013;-89
2022/04/26 13:23:16;;;;;;;6.77;4.00;;;;;;;16.70;40.29;101820.31;5089660;28;20028;-90
2022/04/26 13:25:43;;;;;;;7.47;4.03;;;;;;;16.49;40.00;101821.16;5087684;28;20378;-90
2022/04/26 13:28:09;;;;;;;6.45;3.75;;;;;;;16.42;40.76;101820.66;5087455;28;20058;-88
2022/04/26 13:30:35;;;;;;;13.35;4.15;;;;;;;16.47;39.53;101817.91;5087260;28;20115;-89
2022/04/26 13:33:01;;;;;;;5.25;3.65;;;;;;;16.55;40.02;101815.75;5070174;28;20497;-89
2022/04/26 13:35:26;;;;;;;6.90;4.00;;;;;;;16.71;39.91;101820.03;5087992;28;20055;-89
2022/04/26 13:37:52;;;;;;;9.37;4.00;;;;;;;17.04;40.93;101809.66;5084235;28;20020;-87
2022/04/26 13:40:19;;;;;;;6.90;4.20;;;;;;;17.13;39.50;101818.00;5072236;28;20032;-90
2022/04/26 13:42:45;;;;;;;9.15;3.90;;;;;;;17.50;38.94;101824.84;5087519;28;20024;-90
2022/04/26 13:45:10;;;;;;;8.60;3.70;;;;;;;17.52;38.80;101817.25;5092090;28;20078;-89
2022/04/26 13:47:37;;;;;;;7.47;3.67;;;;;;;17.65;38.26;101837.50;5086778;28;20017;-91
2022/04/26 13:50:05;;;;;;;4.20;3.40;;;;;;;17.82;38.54;101820.03;5092018;28;20085;-88
2022/04/26 13:52:31;;;;;;;6.75;3.90;;;;;;;17.77;37.45;101826.31;5094342;28;20016;-91
2022/04/26 13:54:57;;;;;;;9.30;3.93;;;;;;;17.67;37.78;101824.47;5099985;28;20035;-91
2022/04/26 13:57:22;;;;;;;7.23;3.93;;;;;;;17.28;38.23;101822.53;5098585;28;20313;-91
2022/04/26 13:59:48;;;;;;;6.30;3.70;;;;;;;17.29;39.27;101826.88;5086941;28;20395;-86
2022/04/26 14:02:13;;;;;;;5.53;3.73;;;;;;;17.11;38.69;101825.59;5083700;28;20085;-88
2022/04/26 14:04:39;;;;;;;6.30;3.95;;;;;;;17.05;39.25;101827.53;5091483;28;20113;-90
2022/04/26 14:07:05;;;;;;;8.50;4.00;;;;;;;16.91;39.63;101829.19;5090040;28;20360;-88
2022/04/26 14:09:30;;;;;;;8.10;3.58;;;;;;;17.17;39.53;101823.66;5087208;28;20027;-90
2022/04/26 14:11:56;;;;;;;7.27;4.13;;;;;;;17.15;38.31;101831.28;5093476;28;20036;-90
2022/04/26 14:22:37;;;;;;;6.03;3.72;;;;;;;17.20;37.93;101833.94;5085163;28;20106;-88
2022/04/26 14:25:10;;;;;;;5.97;3.97;;;;;;;17.11;39.01;101839.13;5086975;28;20359;-90
2022/04/26 14:27:37;;;;;;;8.75;4.13;;;;;;;16.91;38.18;101842.72;5096393;28;20043;-91
2022/04/26 14:30:04;;;;;;;6.05;3.72;;;;;;;16.74;38.72;101829.50;5089326;28;20040;-87
2022/04/26 14:32:30;;;;;;;6.83;3.90;;;;;;;16.73;38.05;101835.97;5095069;28;20098;-88
2022/04/26 14:34:58;;;;;;;9.47;3.93;;;;;;;16.75;38.58;101834.66;5094905;28;20848;-89
2022/04/26 14:37:24;;;;;;;4.15;3.60;;;;;;;16.61;38.67;101836.31;5090207;28;20040;-88
2022/04/26 14:39:50;;;;;;;7.63;3.50;;;;;;;16.40;38.57;101849.03;5095587;28;20344;-83
2022/04/26 14:42:18;;;;;;;6.75;3.22;;;;;;;16.14;39.02;101843.66;5091508;28;20025;-87
2022/04/26 14:44:46;;;;;;;6.82;3.60;;;;;;;16.06;39.69;101847.72;5085916;28;20113;-88
2022/04/26 14:47:12;;;;;;;4.13;3.50;;;;;;;16.10;40.11;101847.97;5072509;28;20085;-87
2022/04/26 14:49:38;;;;;;;4.93;3.53;;;;;;;16.07;39.40;101838.50;5090059;22;20875;-88
2022/04/26 14:52:21;;;;;;;5.22;3.67;;;;;;;16.00;39.92;101829.88;5052441;28;20090;-86
2022/04/26 14:54:47;;;;;;;5.28;3.60;;;;;;;15.88;40.43;101847.16;5069216;28;20025;-89
2022/04/26 14:57:17;;;;;;;7.13;3.50;;;;;;;16.04;40.59;101844.47;5072849;28;20035;-89
2022/04/26 14:59:52;;;;;;;6.38;3.30;;;;;;;16.01;40.25;101839.59;5063586;28;20029;-87
2022/04/26 15:02:39;;;;;;;5.73;3.60;;;;;;;15.73;40.71;101831.72;5079728;28;20499;-89
2022/04/26 15:05:08;;;;;;;7.90;3.33;;;;;;;15.70;40.61;101847.66;5053508;28;20299;-90
2022/04/26 15:10:24;;;;;;;4.93;3.63;;;;;;;15.99;40.29;101849.88;5028333;28;20055;-86
2022/04/26 15:18:24;;;;;;;5.97;3.28;;;;;;;15.87;40.55;101850.13;5056804;28;20040;-89
2022/04/26 15:20:51;;;;;;;6.33;3.60;;;;;;;15.80;39.66;101838.72;5029394;28;20029;-89
2022/04/26 15:24:01;;;;;;;5.53;3.17;;;;;;;16.15;40.92;101851.50;5050057;28;20473;-91
2022/04/26 15:26:36;;;;;;;4.90;3.42;;;;;;;16.37;39.62;101847.69;5064587;28;20103;-91
2022/04/26 15:29:03;;;;;;;5.85;2.90;;;;;;;16.02;38.66;101844.72;5082058;28;20021;-88
2022/04/26 15:31:28;;;;;;;5.00;3.20;;;;;;;15.80;39.00;101858.47;5080533;28;20031;-91
2022/04/26 15:33:54;;;;;;;5.20;3.00;;;;;;;15.57;39.81;101854.38;5050287;28;20032;-89
2022/04/26 15:36:21;;;;;;;4.97;3.03;;;;;;;15.80;39.48;101853.06;5051667;28;20036;-90
2022/04/26 15:38:47;;;;;;;4.80;3.20;;;;;;;15.97;39.79;101858.25;5050636;28;20025;-94
2022/04/26 15:41:13;;;;;;;5.63;2.90;;;;;;;15.92;38.81;101860.94;5046750;28;20287;-94
2022/04/26 15:43:39;;;;;;;4.38;2.63;;;;;;;15.84;39.33;101856.03;5039911;28;20025;-90
2022/04/26 15:46:08;;;;;;;6.30;3.10;;;;;;;15.88;39.20;101859.84;5037516;28;20039;-93
2022/04/26 15:48:38;;;;;;;9.35;3.13;;;;;;;15.77;39.41;101852.78;5043004;28;20033;-90
2022/04/26 15:51:04;;;;;;;3.65;3.15;;;;;;;15.86;39.52;101856.59;5037664;28;20140;-88
2022/04/26 15:53:29;;;;;;;5.05;3.08;;;;;;;15.70;39.02;101856.56;5048855;28;20119;-90
2022/04/26 15:55:54;;;;;;;4.10;3.20;;;;;;;15.87;38.72;101864.47;5053205;28;20090;-89
2022/04/26 15:58:20;;;;;;;5.73;3.30;;;;;;;16.04;38.45;101856.09;5050714;28;20053;-90
2022/04/26 16:00:45;;;;;;;4.77;3.20;;;;;;;16.14;37.90;101857.19;5053542;28;20030;-91